<?xml version="1.0" encoding="UTF-8"?>
<gpx version="1.1" creator="2bulu-scraper" xmlns="http://www.topografix.com/GPX/1/1">
  <metadata><name>泸州古蔺虎头山野穿红龙湖环线</name><desc>source: 2bulu.com trackId=88451013; exported 2026-09-01T14:26:55.182Z</desc>
    <bounds minlat="28.1171173" minlon="105.7505438" maxlat="28.1360871" maxlon="105.7932773"/>
    <link href="https://www.2bulu.com/track/t-pV%252FGq323S9Xp%252FR2KBg5Tzw%253D%253D.htm"><text>2bulu 源页面</text></link>
  </metadata>
  <wpt lat="28.1258238" lon="105.7507153"><ele>1269</ele><name>
        </name></wpt>
  <wpt lat="28.1258238" lon="105.7507153"><ele>1269</ele><name>
        </name></wpt>
  <wpt lat="28.1258238" lon="105.7507153"><ele>1269</ele><name>
        </name></wpt>
  <wpt lat="28.1258238" lon="105.7507153"><ele>1269</ele><name>
        </name></wpt>
  <wpt lat="28.1258238" lon="105.7507153"><ele>1269</ele><name>
        </name></wpt>
  <wpt lat="28.1258238" lon="105.7507153"><ele>1269</ele><name>
        </name></wpt>
  <wpt lat="28.1258238" lon="105.7507153"><ele>1269</ele><name>
        </name></wpt>
  <wpt lat="28.1258238" lon="105.7507153"><ele>1269</ele><name>
        </name></wpt>
  <wpt lat="28.1258238" lon="105.7507153"><ele>1269</ele><name>
        </name></wpt>
  <wpt lat="28.1258238" lon="105.7507153"><ele>1269</ele><name>
        </name></wpt>
  <wpt lat="28.1258238" lon="105.7507153"><ele>1269</ele><name>
        </name></wpt>
  <wpt lat="28.1258238" lon="105.7507153"><ele>1269</ele><name>
        </name></wpt>
  <wpt lat="28.1258238" lon="105.7507153"><ele>1269</ele><name>
        </name></wpt>
  <wpt lat="28.1258238" lon="105.7507153"><ele>1269</ele><name>
        </name></wpt>
  <wpt lat="28.1258238" lon="105.7507153"><ele>1269</ele><name>
        </name></wpt>
  <wpt lat="28.1258238" lon="105.7507153"><ele>1269</ele><name>
        </name></wpt>
  <wpt lat="28.1258238" lon="105.7507153"><ele>1269</ele><name>
        </name></wpt>
  <wpt lat="28.1258238" lon="105.7507153"><ele>1269</ele><name>
        </name></wpt>
  <wpt lat="28.1258238" lon="105.7507153"><ele>1269</ele><name>
        </name></wpt>
  <wpt lat="28.1258238" lon="105.7507153"><ele>1269</ele><name>
        </name></wpt>
  <wpt lat="28.1258238" lon="105.7507153"><ele>1269</ele><name>
        </name></wpt>
  <wpt lat="28.1258238" lon="105.7507153"><ele>1269</ele><name>
        </name></wpt>
  <wpt lat="28.1258238" lon="105.7507153"><ele>1269</ele><name>
        </name></wpt>
  <wpt lat="28.1258238" lon="105.7507153"><ele>1269</ele><name>
        </name></wpt>
  <wpt lat="28.1258238" lon="105.7507153"><ele>1269</ele><name>
        </name></wpt>
  <wpt lat="28.1226364" lon="105.7539099"><ele>1459</ele><name>
        </name></wpt>
  <wpt lat="28.1350544" lon="105.7894113"><ele>1565</ele><name>
        </name></wpt>
  <wpt lat="28.1342462" lon="105.7884133"><ele>1569</ele><name>
        </name></wpt>
  <wpt lat="28.1244042" lon="105.751076"><ele>1305</ele><name>
        </name></wpt>
  <trk><name>泸州古蔺虎头山野穿红龙湖环线</name>
      <trkseg>
        <trkpt lat="28.1258238" lon="105.7507153"><ele>1269</ele><time>2026-08-14T17:27:42.000Z</time></trkpt>
        <trkpt lat="28.1258117" lon="105.7510981"><ele>1274</ele><time>2026-08-14T17:29:41.000Z</time></trkpt>
        <trkpt lat="28.1252134" lon="105.7508539"><ele>1274</ele><time>2026-08-14T17:31:00.000Z</time></trkpt>
        <trkpt lat="28.1251916" lon="105.7511265"><ele>1278</ele><time>2026-08-14T17:31:28.000Z</time></trkpt>
        <trkpt lat="28.1247136" lon="105.7511878"><ele>1279</ele><time>2026-08-14T17:32:21.000Z</time></trkpt>
        <trkpt lat="28.1245678" lon="105.7513528"><ele>1281</ele><time>2026-08-14T17:32:37.000Z</time></trkpt>
        <trkpt lat="28.1244186" lon="105.7510711"><ele>1292</ele><time>2026-08-14T17:33:40.000Z</time></trkpt>
        <trkpt lat="28.1238635" lon="105.75133"><ele>1308</ele><time>2026-08-14T17:35:22.000Z</time></trkpt>
        <trkpt lat="28.1235325" lon="105.7512292"><ele>1322</ele><time>2026-08-14T17:36:53.000Z</time></trkpt>
        <trkpt lat="28.1236169" lon="105.7509137"><ele>1328</ele><time>2026-08-14T17:37:37.000Z</time></trkpt>
        <trkpt lat="28.1234465" lon="105.7508122"><ele>1336</ele><time>2026-08-14T17:38:19.000Z</time></trkpt>
        <trkpt lat="28.1232157" lon="105.7511789"><ele>1344</ele><time>2026-08-14T17:39:16.000Z</time></trkpt>
        <trkpt lat="28.1233414" lon="105.7515734"><ele>1355</ele><time>2026-08-14T17:40:32.000Z</time></trkpt>
        <trkpt lat="28.1226732" lon="105.7526533"><ele>1406</ele><time>2026-08-14T17:47:19.000Z</time></trkpt>
        <trkpt lat="28.1227199" lon="105.7538743"><ele>1445</ele><time>2026-08-14T17:51:17.000Z</time></trkpt>
        <trkpt lat="28.1224907" lon="105.7539414"><ele>1447</ele><time>2026-08-14T17:52:19.000Z</time></trkpt>
        <trkpt lat="28.1226414" lon="105.7538621"><ele>1456</ele><time>2026-08-14T17:59:24.000Z</time></trkpt>
        <trkpt lat="28.1227247" lon="105.7540353"><ele>1449</ele><time>2026-08-14T18:11:55.000Z</time></trkpt>
        <trkpt lat="28.1226457" lon="105.7538648"><ele>1460</ele><time>2026-08-14T18:15:57.000Z</time></trkpt>
        <trkpt lat="28.1224453" lon="105.7539734"><ele>1455</ele><time>2026-08-14T18:22:06.000Z</time></trkpt>
        <trkpt lat="28.1223856" lon="105.7544433"><ele>1464</ele><time>2026-08-14T18:24:55.000Z</time></trkpt>
        <trkpt lat="28.1219785" lon="105.755257"><ele>1527</ele><time>2026-08-14T18:32:17.000Z</time></trkpt>
        <trkpt lat="28.1227274" lon="105.7566553"><ele>1569</ele><time>2026-08-14T18:41:32.000Z</time></trkpt>
        <trkpt lat="28.1233403" lon="105.7571327"><ele>1614</ele><time>2026-08-14T18:46:19.000Z</time></trkpt>
        <trkpt lat="28.1239118" lon="105.7581183"><ele>1667</ele><time>2026-08-14T18:56:30.000Z</time></trkpt>
        <trkpt lat="28.1243827" lon="105.7583175"><ele>1705</ele><time>2026-08-14T19:06:42.000Z</time></trkpt>
        <trkpt lat="28.1250513" lon="105.7595093"><ele>1732</ele><time>2026-08-14T19:18:08.000Z</time></trkpt>
        <trkpt lat="28.1242216" lon="105.7598064"><ele>1724</ele><time>2026-08-14T19:20:53.000Z</time></trkpt>
        <trkpt lat="28.1239068" lon="105.7597598"><ele>1723</ele><time>2026-08-14T19:21:25.000Z</time></trkpt>
        <trkpt lat="28.1235908" lon="105.759977"><ele>1737</ele><time>2026-08-14T19:23:22.000Z</time></trkpt>
        <trkpt lat="28.1234439" lon="105.7610604"><ele>1779</ele><time>2026-08-14T19:31:07.000Z</time></trkpt>
        <trkpt lat="28.1231357" lon="105.7611548"><ele>1766</ele><time>2026-08-14T19:34:31.000Z</time></trkpt>
        <trkpt lat="28.1228805" lon="105.7619305"><ele>1772</ele><time>2026-08-14T19:35:58.000Z</time></trkpt>
        <trkpt lat="28.1223269" lon="105.7621368"><ele>1761</ele><time>2026-08-14T19:38:24.000Z</time></trkpt>
        <trkpt lat="28.1222011" lon="105.7623645"><ele>1765</ele><time>2026-08-14T19:38:59.000Z</time></trkpt>
        <trkpt lat="28.1216438" lon="105.7622741"><ele>1756</ele><time>2026-08-14T19:40:29.000Z</time></trkpt>
        <trkpt lat="28.1214236" lon="105.7625496"><ele>1757</ele><time>2026-08-14T19:40:59.000Z</time></trkpt>
        <trkpt lat="28.1212051" lon="105.7625011"><ele>1754</ele><time>2026-08-14T19:41:33.000Z</time></trkpt>
        <trkpt lat="28.1206463" lon="105.7629255"><ele>1751</ele><time>2026-08-14T19:42:45.000Z</time></trkpt>
        <trkpt lat="28.1201236" lon="105.762989"><ele>1749</ele><time>2026-08-14T19:43:47.000Z</time></trkpt>
        <trkpt lat="28.1198294" lon="105.7628073"><ele>1748</ele><time>2026-08-14T19:44:53.000Z</time></trkpt>
        <trkpt lat="28.1194909" lon="105.7630043"><ele>1743</ele><time>2026-08-14T19:47:46.000Z</time></trkpt>
        <trkpt lat="28.1192628" lon="105.7633493"><ele>1733</ele><time>2026-08-14T19:48:30.000Z</time></trkpt>
        <trkpt lat="28.1192201" lon="105.7638425"><ele>1724</ele><time>2026-08-14T19:55:11.000Z</time></trkpt>
        <trkpt lat="28.118599" lon="105.7642865"><ele>1699</ele><time>2026-08-14T19:57:30.000Z</time></trkpt>
        <trkpt lat="28.1187438" lon="105.7652488"><ele>1703</ele><time>2026-08-14T19:59:16.000Z</time></trkpt>
        <trkpt lat="28.1185845" lon="105.7657535"><ele>1706</ele><time>2026-08-14T20:00:26.000Z</time></trkpt>
        <trkpt lat="28.1181494" lon="105.7661573"><ele>1700</ele><time>2026-08-14T20:01:23.000Z</time></trkpt>
        <trkpt lat="28.1173594" lon="105.7661045"><ele>1717</ele><time>2026-08-14T20:03:38.000Z</time></trkpt>
        <trkpt lat="28.1171218" lon="105.7662799"><ele>1714</ele><time>2026-08-14T20:04:35.000Z</time></trkpt>
        <trkpt lat="28.1182666" lon="105.7676658"><ele>1750</ele><time>2026-08-14T20:34:52.000Z</time></trkpt>
        <trkpt lat="28.1189123" lon="105.7679798"><ele>1766</ele><time>2026-08-14T20:37:22.000Z</time></trkpt>
        <trkpt lat="28.1194491" lon="105.768401"><ele>1786</ele><time>2026-08-14T20:41:19.000Z</time></trkpt>
        <trkpt lat="28.1196038" lon="105.7687687"><ele>1793</ele><time>2026-08-14T20:43:36.000Z</time></trkpt>
        <trkpt lat="28.1206188" lon="105.769381"><ele>1794</ele><time>2026-08-14T20:47:15.000Z</time></trkpt>
        <trkpt lat="28.1206976" lon="105.7697097"><ele>1805</ele><time>2026-08-14T20:50:54.000Z</time></trkpt>
        <trkpt lat="28.1210261" lon="105.7698829"><ele>1815</ele><time>2026-08-14T20:52:31.000Z</time></trkpt>
        <trkpt lat="28.1210822" lon="105.770795"><ele>1788</ele><time>2026-08-14T20:54:24.000Z</time></trkpt>
        <trkpt lat="28.1214188" lon="105.7710167"><ele>1765</ele><time>2026-08-14T20:57:04.000Z</time></trkpt>
        <trkpt lat="28.121043" lon="105.7714507"><ele>1751</ele><time>2026-08-14T20:59:03.000Z</time></trkpt>
        <trkpt lat="28.1210486" lon="105.771911"><ele>1741</ele><time>2026-08-14T21:00:08.000Z</time></trkpt>
        <trkpt lat="28.1208571" lon="105.7720331"><ele>1733</ele><time>2026-08-14T21:01:15.000Z</time></trkpt>
        <trkpt lat="28.1208648" lon="105.7721976"><ele>1727</ele><time>2026-08-14T21:01:53.000Z</time></trkpt>
        <trkpt lat="28.1212748" lon="105.7723753"><ele>1709</ele><time>2026-08-14T21:05:01.000Z</time></trkpt>
        <trkpt lat="28.1210374" lon="105.7732907"><ele>1688</ele><time>2026-08-14T21:09:14.000Z</time></trkpt>
        <trkpt lat="28.1204488" lon="105.7742272"><ele>1666</ele><time>2026-08-14T21:14:37.000Z</time></trkpt>
        <trkpt lat="28.1201012" lon="105.774457"><ele>1659</ele><time>2026-08-14T21:15:58.000Z</time></trkpt>
        <trkpt lat="28.1195118" lon="105.7761905"><ele>1635</ele><time>2026-08-14T21:28:41.000Z</time></trkpt>
        <trkpt lat="28.1192307" lon="105.7774264"><ele>1623</ele><time>2026-08-14T21:31:29.000Z</time></trkpt>
        <trkpt lat="28.1193168" lon="105.7781828"><ele>1616</ele><time>2026-08-14T21:33:18.000Z</time></trkpt>
        <trkpt lat="28.1191981" lon="105.7788161"><ele>1612</ele><time>2026-08-14T21:36:48.000Z</time></trkpt>
        <trkpt lat="28.1193578" lon="105.779738"><ele>1602</ele><time>2026-08-14T21:38:45.000Z</time></trkpt>
        <trkpt lat="28.1191409" lon="105.7811307"><ele>1590</ele><time>2026-08-14T21:41:20.000Z</time></trkpt>
        <trkpt lat="28.1185958" lon="105.7818189"><ele>1590</ele><time>2026-08-14T21:43:05.000Z</time></trkpt>
        <trkpt lat="28.1186976" lon="105.7826354"><ele>1589</ele><time>2026-08-14T21:44:25.000Z</time></trkpt>
        <trkpt lat="28.1180629" lon="105.782592"><ele>1588</ele><time>2026-08-14T21:45:40.000Z</time></trkpt>
        <trkpt lat="28.1184518" lon="105.7829726"><ele>1588</ele><time>2026-08-14T21:46:32.000Z</time></trkpt>
        <trkpt lat="28.1185446" lon="105.7833868"><ele>1585</ele><time>2026-08-14T21:48:35.000Z</time></trkpt>
        <trkpt lat="28.1178841" lon="105.783979"><ele>1586</ele><time>2026-08-14T21:51:36.000Z</time></trkpt>
        <trkpt lat="28.1182482" lon="105.7846339"><ele>1586</ele><time>2026-08-14T21:53:32.000Z</time></trkpt>
        <trkpt lat="28.1189916" lon="105.7845576"><ele>1587</ele><time>2026-08-14T21:54:45.000Z</time></trkpt>
        <trkpt lat="28.1193916" lon="105.7846895"><ele>1586</ele><time>2026-08-14T21:56:06.000Z</time></trkpt>
        <trkpt lat="28.119665" lon="105.7852767"><ele>1586</ele><time>2026-08-14T21:56:50.000Z</time></trkpt>
        <trkpt lat="28.1198995" lon="105.784927"><ele>1586</ele><time>2026-08-14T21:57:20.000Z</time></trkpt>
        <trkpt lat="28.1202727" lon="105.7851063"><ele>1587</ele><time>2026-08-14T21:57:49.000Z</time></trkpt>
        <trkpt lat="28.1203801" lon="105.7854087"><ele>1588</ele><time>2026-08-14T21:58:14.000Z</time></trkpt>
        <trkpt lat="28.1206185" lon="105.7854584"><ele>1587</ele><time>2026-08-14T21:58:34.000Z</time></trkpt>
        <trkpt lat="28.1211934" lon="105.7860519"><ele>1587</ele><time>2026-08-14T21:59:34.000Z</time></trkpt>
        <trkpt lat="28.1211033" lon="105.7865812"><ele>1589</ele><time>2026-08-14T22:00:47.000Z</time></trkpt>
        <trkpt lat="28.1214968" lon="105.7867307"><ele>1588</ele><time>2026-08-14T22:01:19.000Z</time></trkpt>
        <trkpt lat="28.121754" lon="105.7865599"><ele>1588</ele><time>2026-08-14T22:01:45.000Z</time></trkpt>
        <trkpt lat="28.1223133" lon="105.7868007"><ele>1587</ele><time>2026-08-14T22:02:31.000Z</time></trkpt>
        <trkpt lat="28.1223529" lon="105.7869742"><ele>1587</ele><time>2026-08-14T22:02:45.000Z</time></trkpt>
        <trkpt lat="28.1219072" lon="105.7876042"><ele>1584</ele><time>2026-08-14T22:03:47.000Z</time></trkpt>
        <trkpt lat="28.122019" lon="105.7879255"><ele>1582</ele><time>2026-08-14T22:04:13.000Z</time></trkpt>
        <trkpt lat="28.1221658" lon="105.7879541"><ele>1582</ele><time>2026-08-14T22:04:23.000Z</time></trkpt>
        <trkpt lat="28.1225152" lon="105.7876052"><ele>1585</ele><time>2026-08-14T22:05:21.000Z</time></trkpt>
        <trkpt lat="28.1227537" lon="105.7876729"><ele>1586</ele><time>2026-08-14T22:05:41.000Z</time></trkpt>
        <trkpt lat="28.1231453" lon="105.787324"><ele>1585</ele><time>2026-08-14T22:06:21.000Z</time></trkpt>
        <trkpt lat="28.1237915" lon="105.7875501"><ele>1583</ele><time>2026-08-14T22:07:19.000Z</time></trkpt>
        <trkpt lat="28.1238045" lon="105.7878479"><ele>1583</ele><time>2026-08-14T22:08:12.000Z</time></trkpt>
        <trkpt lat="28.1233199" lon="105.7881522"><ele>1584</ele><time>2026-08-14T22:09:02.000Z</time></trkpt>
        <trkpt lat="28.1232787" lon="105.7890155"><ele>1582</ele><time>2026-08-14T22:10:08.000Z</time></trkpt>
        <trkpt lat="28.1234461" lon="105.7890073"><ele>1582</ele><time>2026-08-14T22:10:26.000Z</time></trkpt>
        <trkpt lat="28.1238122" lon="105.7883604"><ele>1587</ele><time>2026-08-14T22:11:38.000Z</time></trkpt>
        <trkpt lat="28.1243602" lon="105.7882945"><ele>1587</ele><time>2026-08-14T22:12:26.000Z</time></trkpt>
        <trkpt lat="28.1248952" lon="105.7891899"><ele>1584</ele><time>2026-08-14T22:13:46.000Z</time></trkpt>
        <trkpt lat="28.125158" lon="105.7890465"><ele>1584</ele><time>2026-08-14T22:14:14.000Z</time></trkpt>
        <trkpt lat="28.1257373" lon="105.7893273"><ele>1584</ele><time>2026-08-14T22:15:08.000Z</time></trkpt>
        <trkpt lat="28.1255065" lon="105.7898723"><ele>1586</ele><time>2026-08-14T22:15:54.000Z</time></trkpt>
        <trkpt lat="28.1257708" lon="105.7901673"><ele>1585</ele><time>2026-08-14T22:16:26.000Z</time></trkpt>
        <trkpt lat="28.1256581" lon="105.7909203"><ele>1582</ele><time>2026-08-14T22:17:22.000Z</time></trkpt>
        <trkpt lat="28.1260423" lon="105.7906194"><ele>1584</ele><time>2026-08-14T22:18:05.000Z</time></trkpt>
        <trkpt lat="28.1263307" lon="105.7906359"><ele>1585</ele><time>2026-08-14T22:18:27.000Z</time></trkpt>
        <trkpt lat="28.1262636" lon="105.7899022"><ele>1590</ele><time>2026-08-14T22:19:19.000Z</time></trkpt>
        <trkpt lat="28.1264793" lon="105.7898153"><ele>1591</ele><time>2026-08-14T22:19:45.000Z</time></trkpt>
        <trkpt lat="28.1268282" lon="105.7902282"><ele>1594</ele><time>2026-08-14T22:20:27.000Z</time></trkpt>
        <trkpt lat="28.1275334" lon="105.7919679"><ele>1587</ele><time>2026-08-14T22:23:10.000Z</time></trkpt>
        <trkpt lat="28.1279651" lon="105.7923743"><ele>1586</ele><time>2026-08-14T22:24:00.000Z</time></trkpt>
        <trkpt lat="28.1281427" lon="105.7922604"><ele>1585</ele><time>2026-08-14T22:25:36.000Z</time></trkpt>
        <trkpt lat="28.1280468" lon="105.7917987"><ele>1587</ele><time>2026-08-14T22:26:21.000Z</time></trkpt>
        <trkpt lat="28.1281731" lon="105.7915081"><ele>1590</ele><time>2026-08-14T22:26:53.000Z</time></trkpt>
        <trkpt lat="28.1280226" lon="105.7912669"><ele>1592</ele><time>2026-08-14T22:27:19.000Z</time></trkpt>
        <trkpt lat="28.128179" lon="105.7911257"><ele>1593</ele><time>2026-08-14T22:27:37.000Z</time></trkpt>
        <trkpt lat="28.1286591" lon="105.7914355"><ele>1591</ele><time>2026-08-14T22:28:25.000Z</time></trkpt>
        <trkpt lat="28.1293721" lon="105.7925086"><ele>1583</ele><time>2026-08-14T22:31:05.000Z</time></trkpt>
        <trkpt lat="28.1300695" lon="105.7929224"><ele>1581</ele><time>2026-08-14T22:32:07.000Z</time></trkpt>
        <trkpt lat="28.1302498" lon="105.7928357"><ele>1581</ele><time>2026-08-14T22:32:21.000Z</time></trkpt>
        <trkpt lat="28.1293984" lon="105.7917414"><ele>1579</ele><time>2026-08-14T22:34:13.000Z</time></trkpt>
        <trkpt lat="28.1291801" lon="105.7909816"><ele>1577</ele><time>2026-08-14T22:35:09.000Z</time></trkpt>
        <trkpt lat="28.1292129" lon="105.7902019"><ele>1577</ele><time>2026-08-14T22:36:03.000Z</time></trkpt>
        <trkpt lat="28.129436" lon="105.7899563"><ele>1578</ele><time>2026-08-14T22:36:29.000Z</time></trkpt>
        <trkpt lat="28.1292558" lon="105.7897904"><ele>1579</ele><time>2026-08-14T22:36:49.000Z</time></trkpt>
        <trkpt lat="28.1292873" lon="105.7895102"><ele>1579</ele><time>2026-08-14T22:37:09.000Z</time></trkpt>
        <trkpt lat="28.1289547" lon="105.7894477"><ele>1581</ele><time>2026-08-14T22:37:37.000Z</time></trkpt>
        <trkpt lat="28.129021" lon="105.7891144"><ele>1580</ele><time>2026-08-14T22:38:15.000Z</time></trkpt>
        <trkpt lat="28.1287544" lon="105.7889642"><ele>1581</ele><time>2026-08-14T22:38:43.000Z</time></trkpt>
        <trkpt lat="28.12921" lon="105.7887435"><ele>1580</ele><time>2026-08-14T22:39:29.000Z</time></trkpt>
        <trkpt lat="28.1297168" lon="105.7891689"><ele>1580</ele><time>2026-08-14T22:40:21.000Z</time></trkpt>
        <trkpt lat="28.1297139" lon="105.7896329"><ele>1579</ele><time>2026-08-14T22:40:57.000Z</time></trkpt>
        <trkpt lat="28.1301787" lon="105.7899824"><ele>1580</ele><time>2026-08-14T22:41:45.000Z</time></trkpt>
        <trkpt lat="28.130246" lon="105.79031"><ele>1580</ele><time>2026-08-14T22:42:14.000Z</time></trkpt>
        <trkpt lat="28.1306766" lon="105.7902738"><ele>1581</ele><time>2026-08-14T22:43:07.000Z</time></trkpt>
        <trkpt lat="28.1309651" lon="105.7906373"><ele>1581</ele><time>2026-08-14T22:43:43.000Z</time></trkpt>
        <trkpt lat="28.1313333" lon="105.7904564"><ele>1581</ele><time>2026-08-14T22:44:19.000Z</time></trkpt>
        <trkpt lat="28.132458" lon="105.7919153"><ele>1572</ele><time>2026-08-14T22:46:43.000Z</time></trkpt>
        <trkpt lat="28.1326305" lon="105.7918049"><ele>1572</ele><time>2026-08-14T22:46:59.000Z</time></trkpt>
        <trkpt lat="28.1325907" lon="105.7913429"><ele>1572</ele><time>2026-08-14T22:47:33.000Z</time></trkpt>
        <trkpt lat="28.1321039" lon="105.7906177"><ele>1576</ele><time>2026-08-14T22:48:39.000Z</time></trkpt>
        <trkpt lat="28.1320677" lon="105.7899561"><ele>1579</ele><time>2026-08-14T22:49:23.000Z</time></trkpt>
        <trkpt lat="28.1325309" lon="105.7898714"><ele>1576</ele><time>2026-08-14T22:51:03.000Z</time></trkpt>
        <trkpt lat="28.132768" lon="105.7895634"><ele>1575</ele><time>2026-08-14T22:53:46.000Z</time></trkpt>
        <trkpt lat="28.1333547" lon="105.789959"><ele>1576</ele><time>2026-08-14T22:54:44.000Z</time></trkpt>
        <trkpt lat="28.1336738" lon="105.7899726"><ele>1577</ele><time>2026-08-14T22:55:14.000Z</time></trkpt>
        <trkpt lat="28.1336468" lon="105.7904714"><ele>1577</ele><time>2026-08-14T22:55:56.000Z</time></trkpt>
        <trkpt lat="28.1340127" lon="105.7908874"><ele>1580</ele><time>2026-08-14T22:56:38.000Z</time></trkpt>
        <trkpt lat="28.1342621" lon="105.7922114"><ele>1581</ele><time>2026-08-14T22:58:18.000Z</time></trkpt>
        <trkpt lat="28.134078" lon="105.7925986"><ele>1579</ele><time>2026-08-14T22:58:54.000Z</time></trkpt>
        <trkpt lat="28.1347291" lon="105.7932145"><ele>1573</ele><time>2026-08-14T23:00:29.000Z</time></trkpt>
        <trkpt lat="28.135045" lon="105.7932773"><ele>1572</ele><time>2026-08-14T23:00:55.000Z</time></trkpt>
        <trkpt lat="28.135094" lon="105.7931441"><ele>1571</ele><time>2026-08-14T23:01:17.000Z</time></trkpt>
        <trkpt lat="28.1346806" lon="105.7925079"><ele>1568</ele><time>2026-08-14T23:02:19.000Z</time></trkpt>
        <trkpt lat="28.1346661" lon="105.7900699"><ele>1566</ele><time>2026-08-14T23:06:22.000Z</time></trkpt>
        <trkpt lat="28.1352792" lon="105.7891449"><ele>1563</ele><time>2026-08-14T23:13:56.000Z</time></trkpt>
        <trkpt lat="28.1350751" lon="105.7894089"><ele>1565</ele><time>2026-08-14T23:14:39.000Z</time></trkpt>
        <trkpt lat="28.1347028" lon="105.7892703"><ele>1565</ele><time>2026-08-14T23:16:07.000Z</time></trkpt>
        <trkpt lat="28.1345016" lon="105.7889752"><ele>1565</ele><time>2026-08-14T23:16:37.000Z</time></trkpt>
        <trkpt lat="28.1344765" lon="105.7885347"><ele>1565</ele><time>2026-08-14T23:17:15.000Z</time></trkpt>
        <trkpt lat="28.1341621" lon="105.7883042"><ele>1569</ele><time>2026-08-14T23:18:16.000Z</time></trkpt>
        <trkpt lat="28.1343193" lon="105.7882015"><ele>1568</ele><time>2026-08-14T23:19:06.000Z</time></trkpt>
        <trkpt lat="28.134185" lon="105.7883267"><ele>1568</ele><time>2026-08-14T23:19:26.000Z</time></trkpt>
        <trkpt lat="28.1343923" lon="105.788495"><ele>1567</ele><time>2026-08-14T23:19:48.000Z</time></trkpt>
        <trkpt lat="28.1345349" lon="105.7883868"><ele>1568</ele><time>2026-08-14T23:21:01.000Z</time></trkpt>
        <trkpt lat="28.1344656" lon="105.7885053"><ele>1565</ele><time>2026-08-14T23:21:25.000Z</time></trkpt>
        <trkpt lat="28.1345063" lon="105.7882901"><ele>1563</ele><time>2026-08-14T23:22:08.000Z</time></trkpt>
        <trkpt lat="28.1347577" lon="105.7881946"><ele>1565</ele><time>2026-08-14T23:22:55.000Z</time></trkpt>
        <trkpt lat="28.1346451" lon="105.7879863"><ele>1570</ele><time>2026-08-14T23:23:25.000Z</time></trkpt>
        <trkpt lat="28.1346931" lon="105.7869294"><ele>1579</ele><time>2026-08-14T23:25:31.000Z</time></trkpt>
        <trkpt lat="28.1345462" lon="105.7866155"><ele>1580</ele><time>2026-08-14T23:28:18.000Z</time></trkpt>
        <trkpt lat="28.1347117" lon="105.7859973"><ele>1583</ele><time>2026-08-14T23:30:48.000Z</time></trkpt>
        <trkpt lat="28.1345591" lon="105.7851548"><ele>1592</ele><time>2026-08-14T23:32:19.000Z</time></trkpt>
        <trkpt lat="28.1349367" lon="105.7839135"><ele>1601</ele><time>2026-08-14T23:34:34.000Z</time></trkpt>
        <trkpt lat="28.1350413" lon="105.7819651"><ele>1598</ele><time>2026-08-14T23:38:33.000Z</time></trkpt>
        <trkpt lat="28.1360871" lon="105.7813496"><ele>1559</ele><time>2026-08-14T23:42:21.000Z</time></trkpt>
        <trkpt lat="28.1358148" lon="105.7814073"><ele>1559</ele><time>2026-08-14T23:42:51.000Z</time></trkpt>
        <trkpt lat="28.1359002" lon="105.7812159"><ele>1549</ele><time>2026-08-14T23:44:47.000Z</time></trkpt>
        <trkpt lat="28.1349054" lon="105.781355"><ele>1533</ele><time>2026-08-14T23:48:20.000Z</time></trkpt>
        <trkpt lat="28.1341397" lon="105.7805715"><ele>1534</ele><time>2026-08-14T23:52:09.000Z</time></trkpt>
        <trkpt lat="28.1343078" lon="105.7793098"><ele>1533</ele><time>2026-08-14T23:57:36.000Z</time></trkpt>
        <trkpt lat="28.1341665" lon="105.7791098"><ele>1533</ele><time>2026-08-14T23:57:56.000Z</time></trkpt>
        <trkpt lat="28.1343231" lon="105.7790195"><ele>1533</ele><time>2026-08-14T23:58:14.000Z</time></trkpt>
        <trkpt lat="28.1344474" lon="105.7784024"><ele>1531</ele><time>2026-08-14T23:59:40.000Z</time></trkpt>
        <trkpt lat="28.134383" lon="105.777335"><ele>1543</ele><time>2026-08-15T00:04:07.000Z</time></trkpt>
        <trkpt lat="28.1341007" lon="105.7772304"><ele>1539</ele><time>2026-08-15T00:05:00.000Z</time></trkpt>
        <trkpt lat="28.133639" lon="105.7774151"><ele>1539</ele><time>2026-08-15T00:06:20.000Z</time></trkpt>
        <trkpt lat="28.133512" lon="105.777939"><ele>1531</ele><time>2026-08-15T00:08:21.000Z</time></trkpt>
        <trkpt lat="28.1331727" lon="105.7780448"><ele>1527</ele><time>2026-08-15T00:12:36.000Z</time></trkpt>
        <trkpt lat="28.1330464" lon="105.777315"><ele>1541</ele><time>2026-08-15T00:19:16.000Z</time></trkpt>
        <trkpt lat="28.1334942" lon="105.7763362"><ele>1551</ele><time>2026-08-15T00:24:54.000Z</time></trkpt>
        <trkpt lat="28.1336424" lon="105.7749979"><ele>1536</ele><time>2026-08-15T00:31:12.000Z</time></trkpt>
        <trkpt lat="28.1334185" lon="105.7752037"><ele>1536</ele><time>2026-08-15T00:32:24.000Z</time></trkpt>
        <trkpt lat="28.1327741" lon="105.7740275"><ele>1537</ele><time>2026-08-15T00:37:33.000Z</time></trkpt>
        <trkpt lat="28.1328443" lon="105.7736248"><ele>1537</ele><time>2026-08-15T00:38:17.000Z</time></trkpt>
        <trkpt lat="28.1333441" lon="105.7737093"><ele>1539</ele><time>2026-08-15T00:42:41.000Z</time></trkpt>
        <trkpt lat="28.1332628" lon="105.7732068"><ele>1546</ele><time>2026-08-15T00:46:29.000Z</time></trkpt>
        <trkpt lat="28.1326617" lon="105.7729987"><ele>1543</ele><time>2026-08-15T00:49:35.000Z</time></trkpt>
        <trkpt lat="28.1323806" lon="105.7724126"><ele>1545</ele><time>2026-08-15T00:51:23.000Z</time></trkpt>
        <trkpt lat="28.132327" lon="105.7718867"><ele>1545</ele><time>2026-08-15T00:52:45.000Z</time></trkpt>
        <trkpt lat="28.1325468" lon="105.7708668"><ele>1548</ele><time>2026-08-15T00:55:16.000Z</time></trkpt>
        <trkpt lat="28.131987" lon="105.7704566"><ele>1549</ele><time>2026-08-15T00:57:43.000Z</time></trkpt>
        <trkpt lat="28.130335" lon="105.7701742"><ele>1556</ele><time>2026-08-15T01:02:11.000Z</time></trkpt>
        <trkpt lat="28.1296932" lon="105.7695511"><ele>1559</ele><time>2026-08-15T01:05:33.000Z</time></trkpt>
        <trkpt lat="28.1289118" lon="105.7695148"><ele>1565</ele><time>2026-08-15T01:07:04.000Z</time></trkpt>
        <trkpt lat="28.128611" lon="105.7690425"><ele>1567</ele><time>2026-08-15T01:09:16.000Z</time></trkpt>
        <trkpt lat="28.1275171" lon="105.7685344"><ele>1572</ele><time>2026-08-15T01:12:21.000Z</time></trkpt>
        <trkpt lat="28.1265186" lon="105.7682535"><ele>1575</ele><time>2026-08-15T01:15:41.000Z</time></trkpt>
        <trkpt lat="28.1256413" lon="105.7682441"><ele>1582</ele><time>2026-08-15T01:17:52.000Z</time></trkpt>
        <trkpt lat="28.125356" lon="105.7679976"><ele>1582</ele><time>2026-08-15T01:18:45.000Z</time></trkpt>
        <trkpt lat="28.1251008" lon="105.7671647"><ele>1587</ele><time>2026-08-15T01:21:00.000Z</time></trkpt>
        <trkpt lat="28.1245191" lon="105.767141"><ele>1590</ele><time>2026-08-15T01:22:19.000Z</time></trkpt>
        <trkpt lat="28.1231365" lon="105.7664234"><ele>1601</ele><time>2026-08-15T01:26:26.000Z</time></trkpt>
        <trkpt lat="28.1211722" lon="105.7663449"><ele>1621</ele><time>2026-08-15T01:30:51.000Z</time></trkpt>
        <trkpt lat="28.1184279" lon="105.7666011"><ele>1657</ele><time>2026-08-15T01:38:23.000Z</time></trkpt>
        <trkpt lat="28.1171173" lon="105.7662601"><ele>1696</ele><time>2026-08-15T01:43:06.000Z</time></trkpt>
        <trkpt lat="28.1173407" lon="105.7660498"><ele>1699</ele><time>2026-08-15T01:45:52.000Z</time></trkpt>
        <trkpt lat="28.1181679" lon="105.7661195"><ele>1683</ele><time>2026-08-15T01:47:33.000Z</time></trkpt>
        <trkpt lat="28.1185858" lon="105.7657363"><ele>1688</ele><time>2026-08-15T01:48:38.000Z</time></trkpt>
        <trkpt lat="28.1187475" lon="105.7652492"><ele>1687</ele><time>2026-08-15T01:51:02.000Z</time></trkpt>
        <trkpt lat="28.1185986" lon="105.764946"><ele>1685</ele><time>2026-08-15T01:51:31.000Z</time></trkpt>
        <trkpt lat="28.1186129" lon="105.7642696"><ele>1682</ele><time>2026-08-15T01:52:35.000Z</time></trkpt>
        <trkpt lat="28.1192066" lon="105.7638247"><ele>1707</ele><time>2026-08-15T01:56:19.000Z</time></trkpt>
        <trkpt lat="28.119245" lon="105.7633354"><ele>1722</ele><time>2026-08-15T01:57:57.000Z</time></trkpt>
        <trkpt lat="28.1196645" lon="105.7628294"><ele>1738</ele><time>2026-08-15T02:00:14.000Z</time></trkpt>
        <trkpt lat="28.1206303" lon="105.7628738"><ele>1739</ele><time>2026-08-15T02:02:42.000Z</time></trkpt>
        <trkpt lat="28.1212099" lon="105.7624512"><ele>1743</ele><time>2026-08-15T02:04:00.000Z</time></trkpt>
        <trkpt lat="28.1214171" lon="105.7625045"><ele>1747</ele><time>2026-08-15T02:04:37.000Z</time></trkpt>
        <trkpt lat="28.1216515" lon="105.7622178"><ele>1746</ele><time>2026-08-15T02:05:15.000Z</time></trkpt>
        <trkpt lat="28.1221876" lon="105.7623099"><ele>1755</ele><time>2026-08-15T02:07:00.000Z</time></trkpt>
        <trkpt lat="28.1223428" lon="105.7620717"><ele>1752</ele><time>2026-08-15T02:07:54.000Z</time></trkpt>
        <trkpt lat="28.1228593" lon="105.7618812"><ele>1765</ele><time>2026-08-15T02:15:28.000Z</time></trkpt>
        <trkpt lat="28.123114" lon="105.7611481"><ele>1756</ele><time>2026-08-15T02:16:14.000Z</time></trkpt>
        <trkpt lat="28.1234236" lon="105.7610011"><ele>1774</ele><time>2026-08-15T02:18:25.000Z</time></trkpt>
        <trkpt lat="28.1234533" lon="105.7601547"><ele>1745</ele><time>2026-08-15T02:24:51.000Z</time></trkpt>
        <trkpt lat="28.1236701" lon="105.7598631"><ele>1725</ele><time>2026-08-15T02:28:01.000Z</time></trkpt>
        <trkpt lat="28.1247964" lon="105.7594689"><ele>1724</ele><time>2026-08-15T02:30:44.000Z</time></trkpt>
        <trkpt lat="28.1249812" lon="105.7595372"><ele>1728</ele><time>2026-08-15T02:31:25.000Z</time></trkpt>
        <trkpt lat="28.124852" lon="105.7589556"><ele>1730</ele><time>2026-08-15T02:37:11.000Z</time></trkpt>
        <trkpt lat="28.1243096" lon="105.7582401"><ele>1703</ele><time>2026-08-15T02:43:59.000Z</time></trkpt>
        <trkpt lat="28.1239337" lon="105.7581224"><ele>1677</ele><time>2026-08-15T02:49:04.000Z</time></trkpt>
        <trkpt lat="28.1233491" lon="105.7571246"><ele>1627</ele><time>2026-08-15T02:57:44.000Z</time></trkpt>
        <trkpt lat="28.1227541" lon="105.7566836"><ele>1584</ele><time>2026-08-15T03:02:18.000Z</time></trkpt>
        <trkpt lat="28.1219711" lon="105.7552035"><ele>1543</ele><time>2026-08-15T03:06:02.000Z</time></trkpt>
        <trkpt lat="28.1222977" lon="105.754634"><ele>1502</ele><time>2026-08-15T03:08:08.000Z</time></trkpt>
        <trkpt lat="28.1224391" lon="105.7539552"><ele>1471</ele><time>2026-08-15T03:09:59.000Z</time></trkpt>
        <trkpt lat="28.1226996" lon="105.7538699"><ele>1461</ele><time>2026-08-15T03:46:37.000Z</time></trkpt>
        <trkpt lat="28.1226548" lon="105.7526651"><ele>1422</ele><time>2026-08-15T03:50:34.000Z</time></trkpt>
        <trkpt lat="28.1232975" lon="105.7515467"><ele>1371</ele><time>2026-08-15T03:56:37.000Z</time></trkpt>
        <trkpt lat="28.1231781" lon="105.7511781"><ele>1360</ele><time>2026-08-15T03:58:49.000Z</time></trkpt>
        <trkpt lat="28.1233674" lon="105.7508408"><ele>1354</ele><time>2026-08-15T04:00:31.000Z</time></trkpt>
        <trkpt lat="28.1235485" lon="105.750769"><ele>1347</ele><time>2026-08-15T04:01:17.000Z</time></trkpt>
        <trkpt lat="28.1234958" lon="105.751156"><ele>1338</ele><time>2026-08-15T04:02:12.000Z</time></trkpt>
        <trkpt lat="28.1236345" lon="105.7512312"><ele>1330</ele><time>2026-08-15T04:03:00.000Z</time></trkpt>
        <trkpt lat="28.1240882" lon="105.7512394"><ele>1312</ele><time>2026-08-15T04:04:55.000Z</time></trkpt>
        <trkpt lat="28.1244116" lon="105.7510601"><ele>1304</ele><time>2026-08-15T04:05:49.000Z</time></trkpt>
        <trkpt lat="28.1245682" lon="105.751303"><ele>1291</ele><time>2026-08-15T04:06:55.000Z</time></trkpt>
        <trkpt lat="28.1251548" lon="105.751074"><ele>1289</ele><time>2026-08-15T04:07:57.000Z</time></trkpt>
        <trkpt lat="28.1252133" lon="105.7508199"><ele>1284</ele><time>2026-08-15T04:08:25.000Z</time></trkpt>
        <trkpt lat="28.1258077" lon="105.7509991"><ele>1283</ele><time>2026-08-15T04:10:03.000Z</time></trkpt>
        <trkpt lat="28.1258792" lon="105.7505438"><ele>1275</ele><time>2026-08-15T04:15:25.000Z</time></trkpt>
      </trkseg>
  </trk>
</gpx>